createdAt,value
2024-03-06T00:02:22.026Z,13.82
2024-03-06T00:04:48.579Z,13.57
2024-03-06T00:07:15.206Z,13.50
2024-03-06T00:09:41.757Z,13.80
2024-03-06T00:12:08.447Z,14.38
2024-03-06T00:14:37.379Z,14.52
2024-03-06T00:17:06.066Z,13.17
2024-03-06T00:19:32.693Z,14.10
2024-03-06T00:22:00.434Z,13.32
2024-03-06T00:24:26.888Z,12.77
2024-03-06T00:26:53.400Z,14.43
2024-03-06T00:29:19.987Z,14.27
2024-03-06T00:31:47.283Z,13.45
2024-03-06T00:34:16.859Z,13.45
2024-03-06T00:36:46.402Z,13.85
2024-03-06T00:39:15.380Z,14.73
2024-03-06T00:41:43.017Z,13.80
2024-03-06T00:44:09.665Z,13.45
2024-03-06T00:46:36.161Z,14.07
2024-03-06T00:49:02.970Z,13.00
2024-03-06T00:51:37.152Z,13.27
2024-03-06T00:54:10.691Z,12.97
2024-03-06T00:56:40.541Z,13.93
2024-03-06T00:59:07.640Z,14.70
2024-03-06T01:01:34.281Z,14.68
2024-03-06T01:04:00.965Z,14.13
2024-03-06T01:06:27.851Z,13.83
2024-03-06T01:08:55.532Z,13.70
2024-03-06T01:11:22.522Z,14.35
2024-03-06T01:13:49.030Z,13.85
2024-03-06T01:16:15.723Z,14.15
2024-03-06T01:18:42.201Z,13.33
2024-03-06T01:21:08.630Z,15.15
2024-03-06T01:23:35.096Z,15.75
2024-03-06T01:26:01.865Z,13.85
2024-03-06T01:28:28.524Z,14.90
2024-03-06T01:30:55.579Z,15.20
2024-03-06T01:33:22.946Z,15.90
2024-03-06T01:35:49.482Z,16.33
2024-03-06T01:38:17.112Z,15.10
2024-03-06T01:40:45.655Z,14.60
2024-03-06T01:43:23.720Z,13.90
2024-03-06T01:45:51.697Z,15.23
2024-03-06T01:48:22.786Z,15.65
2024-03-06T01:50:49.421Z,14.75
2024-03-06T01:53:17.832Z,15.95
2024-03-06T01:55:44.507Z,14.80
2024-03-06T01:58:11.471Z,15.10
2024-03-06T02:00:38.681Z,15.82
2024-03-06T02:03:05.529Z,16.20
2024-03-06T02:05:33.579Z,15.52
2024-03-06T02:08:00.804Z,15.60
2024-03-06T02:10:28.430Z,16.45
2024-03-06T02:12:55.909Z,15.35
2024-03-06T02:15:22.770Z,14.82
2024-03-06T02:17:49.351Z,15.63
2024-03-06T02:20:17.134Z,14.37
2024-03-06T02:22:43.903Z,14.98
2024-03-06T02:25:10.766Z,15.90
2024-03-06T02:27:38.367Z,14.95
2024-03-06T02:30:05.385Z,13.90
2024-03-06T02:32:31.907Z,16.00
2024-03-06T02:34:58.392Z,14.35
2024-03-06T02:37:25.851Z,14.02
2024-03-06T02:39:52.400Z,13.82
2024-03-06T02:42:18.879Z,14.50
2024-03-06T02:44:45.456Z,13.87
2024-03-06T02:47:12.075Z,15.73
2024-03-06T02:49:38.696Z,15.15
2024-03-06T02:52:05.307Z,13.80
2024-03-06T02:54:31.745Z,13.95
2024-03-06T02:56:58.213Z,13.93
2024-03-06T02:59:25.413Z,13.45
2024-03-06T03:01:51.962Z,13.32
2024-03-06T03:04:18.446Z,13.52
2024-03-06T03:06:45.038Z,13.20
2024-03-06T03:09:12.983Z,14.33
2024-03-06T03:11:39.502Z,14.35
2024-03-06T03:14:06.047Z,12.35
2024-03-06T03:16:33.483Z,14.15
2024-03-06T03:18:59.954Z,14.25
2024-03-06T03:21:26.475Z,12.47
2024-03-06T03:23:52.908Z,12.88
2024-03-06T03:26:19.496Z,13.77
2024-03-06T03:28:46.267Z,13.40
2024-03-06T03:31:12.815Z,12.88
2024-03-06T03:33:42.439Z,13.07
2024-03-06T03:36:09.738Z,13.40
2024-03-06T03:38:39.283Z,14.05
2024-03-06T03:41:10.103Z,13.75
2024-03-06T03:43:37.103Z,13.43
2024-03-06T03:46:05.480Z,12.47
2024-03-06T03:48:32.861Z,12.52
2024-03-06T03:50:59.350Z,12.43
2024-03-06T03:53:25.784Z,12.68
2024-03-06T03:55:52.580Z,13.43
2024-03-06T03:58:19.077Z,12.63
2024-03-06T04:00:46.004Z,12.88
2024-03-06T04:03:12.542Z,13.57
2024-03-06T04:05:39.057Z,12.57
2024-03-06T04:08:07.761Z,12.77
2024-03-06T04:10:34.853Z,12.50
2024-03-06T04:13:01.439Z,12.20
2024-03-06T04:15:28.047Z,12.98
2024-03-06T04:17:54.603Z,11.75
2024-03-06T04:20:21.159Z,12.60
2024-03-06T04:22:49.184Z,12.10
2024-03-06T04:25:15.800Z,10.38
2024-03-06T04:27:42.309Z,11.15
2024-03-06T04:30:09.290Z,11.13
2024-03-06T04:32:35.908Z,11.48
2024-03-06T04:35:03.008Z,10.20
2024-03-06T04:37:30.619Z,9.98
2024-03-06T04:39:57.679Z,10.68
2024-03-06T04:42:24.184Z,9.82
2024-03-06T04:44:50.638Z,9.40
2024-03-06T04:47:17.602Z,10.37
2024-03-06T04:49:44.160Z,10.93
2024-03-06T04:52:10.632Z,9.52
2024-03-06T04:54:37.146Z,9.85
2024-03-06T04:57:03.906Z,9.82
2024-03-06T04:59:30.398Z,8.80
2024-03-06T05:01:57.139Z,8.90
2024-03-06T05:59:09.277Z,10.40
2024-03-06T06:01:36.255Z,10.30
2024-03-06T06:04:06.091Z,9.75
2024-03-06T06:06:34.314Z,9.27
2024-03-06T06:09:01.013Z,8.75
2024-03-06T06:11:27.488Z,9.05
2024-03-06T06:13:54.039Z,9.40
2024-03-06T06:16:20.584Z,9.27
2024-03-06T06:18:47.580Z,9.50
2024-03-06T06:21:14.112Z,9.23
2024-03-06T06:23:40.918Z,8.93
2024-03-06T06:26:07.486Z,9.68
2024-03-06T06:28:33.979Z,9.48
2024-03-06T06:31:00.525Z,9.60
2024-03-06T06:33:27.000Z,9.73
2024-03-06T06:35:53.443Z,9.90
2024-03-06T06:38:21.280Z,9.88
2024-03-06T06:40:47.747Z,9.68
2024-03-06T06:43:14.751Z,9.53
2024-03-06T06:45:41.382Z,9.77
2024-03-06T06:48:08.090Z,10.52
2024-03-06T06:50:34.832Z,10.40
2024-03-06T06:53:01.696Z,10.60
2024-03-06T06:55:28.539Z,9.97
2024-03-06T06:57:55.174Z,10.10
2024-03-06T07:00:24.007Z,10.10
2024-03-06T07:02:50.871Z,10.38
2024-03-06T07:05:17.618Z,10.25
2024-03-06T07:07:44.395Z,10.67
2024-03-06T07:10:11.575Z,11.88
2024-03-06T07:12:38.245Z,12.20
2024-03-06T07:15:05.239Z,12.07
2024-03-06T07:17:31.895Z,12.85
2024-03-06T07:19:58.573Z,11.53
2024-03-06T07:22:25.410Z,11.15
2024-03-06T07:24:51.889Z,11.15
2024-03-06T07:27:19.653Z,12.95
2024-03-06T07:29:46.191Z,13.85
2024-03-06T07:32:12.692Z,12.13
2024-03-06T07:34:39.470Z,13.35
2024-03-06T07:37:06.514Z,11.57
2024-03-06T07:39:33.639Z,12.35
2024-03-06T07:42:00.216Z,12.77
2024-03-06T07:44:26.773Z,12.97
2024-03-06T07:46:55.314Z,13.85
2024-03-06T07:49:25.028Z,14.35
2024-03-06T07:51:51.512Z,13.57
2024-03-06T07:54:18.483Z,13.50
2024-03-06T07:56:45.171Z,13.30
2024-03-06T07:59:13.740Z,13.38
2024-03-06T08:01:41.080Z,13.40
2024-03-06T08:04:07.783Z,13.55
2024-03-06T08:06:34.827Z,14.40
2024-03-06T08:09:03.535Z,12.77
2024-03-06T08:11:30.529Z,13.68
2024-03-06T08:14:01.439Z,14.50
2024-03-06T08:16:29.281Z,14.10
2024-03-06T08:18:57.200Z,16.00
2024-03-06T08:21:24.035Z,15.77
2024-03-06T08:23:50.801Z,15.90
2024-03-06T08:26:17.914Z,15.77
2024-03-06T08:28:44.492Z,15.63
2024-03-06T08:31:11.160Z,15.55
2024-03-06T08:33:38.589Z,16.43
2024-03-06T08:36:05.520Z,15.20
2024-03-06T08:38:32.033Z,16.85
2024-03-06T08:40:58.599Z,15.38
2024-03-06T08:43:25.189Z,15.32
2024-03-06T08:45:51.673Z,15.90
2024-03-06T08:48:18.285Z,16.23
2024-03-06T08:50:44.922Z,16.35
2024-03-06T08:53:11.624Z,15.10
2024-03-06T08:55:38.141Z,17.05
2024-03-06T08:58:04.779Z,16.07
2024-03-06T09:00:31.332Z,16.10
2024-03-06T09:02:57.911Z,16.63
2024-03-06T09:05:24.502Z,16.55
2024-03-06T09:07:51.222Z,16.65
2024-03-06T09:10:20.011Z,18.50
2024-03-06T09:12:46.896Z,15.60
2024-03-06T09:15:13.553Z,17.98
2024-03-06T09:17:40.322Z,18.27
2024-03-06T09:20:14.186Z,17.85
2024-03-06T09:22:42.231Z,18.23
2024-03-06T09:25:09.245Z,17.55
2024-03-06T09:27:36.147Z,17.50
2024-03-06T09:30:04.227Z,17.52
2024-03-06T09:32:31.678Z,17.95
2024-03-06T09:34:59.731Z,17.97
2024-03-06T09:37:26.336Z,18.05
2024-03-06T09:39:52.814Z,19.23
2024-03-06T09:42:19.405Z,18.00
2024-03-06T09:44:46.087Z,17.25
2024-03-06T09:47:17.801Z,17.93
2024-03-06T09:49:44.907Z,16.95
2024-03-06T09:52:11.755Z,17.95
2024-03-06T09:54:40.344Z,17.48
2024-03-06T09:57:07.226Z,17.45
2024-03-06T09:59:34.297Z,17.70
2024-03-06T10:02:05.649Z,16.52
2024-03-06T10:04:35.406Z,17.60
2024-03-06T10:07:03.767Z,17.27
2024-03-06T10:09:30.895Z,17.75
2024-03-06T10:11:59.076Z,16.97
2024-03-06T10:14:26.804Z,16.48
2024-03-06T10:17:00.994Z,17.58
2024-03-06T10:19:29.804Z,16.13
2024-03-06T10:21:58.331Z,16.15
2024-03-06T10:24:27.067Z,17.10
2024-03-06T10:26:56.938Z,17.40
2024-03-06T10:29:25.481Z,16.00
2024-03-06T10:31:53.298Z,15.52
2024-03-06T10:34:21.396Z,16.80
2024-03-06T10:36:55.543Z,15.90
2024-03-06T10:39:22.895Z,14.40
2024-03-06T10:41:55.792Z,15.98
2024-03-06T10:44:26.885Z,15.13
2024-03-06T10:47:03.874Z,16.75
2024-03-06T10:49:31.735Z,15.90
2024-03-06T10:52:03.003Z,13.90
2024-03-06T10:54:31.147Z,14.70
2024-03-06T10:56:57.942Z,14.13
2024-03-06T10:59:31.593Z,14.20
2024-03-06T11:02:01.959Z,15.50
2024-03-06T11:04:31.376Z,14.85
2024-03-06T11:07:00.721Z,16.23
2024-03-06T11:09:41.311Z,14.82
2024-03-06T11:12:08.555Z,15.18
2024-03-06T11:14:40.098Z,15.20
2024-03-06T11:17:09.970Z,16.27
2024-03-06T11:20:01.512Z,15.98
2024-03-06T11:22:59.793Z,16.30
2024-03-06T11:25:55.103Z,15.32
2024-03-06T11:28:21.648Z,15.43
2024-03-06T11:31:03.386Z,14.48
2024-03-06T11:33:39.619Z,14.50
2024-03-06T11:36:18.733Z,14.07
2024-03-06T11:38:54.052Z,14.27
2024-03-06T11:41:25.450Z,13.07
2024-03-06T11:43:56.871Z,12.90
2024-03-06T11:46:40.832Z,12.90
2024-03-06T11:49:16.103Z,13.70
2024-03-06T11:51:42.929Z,12.65
2024-03-06T11:54:09.469Z,11.30
2024-03-06T11:56:37.612Z,13.35
2024-03-06T11:59:04.193Z,12.13
2024-03-06T12:01:31.568Z,12.57
2024-03-06T12:04:00.623Z,13.38
2024-03-06T12:06:28.790Z,12.27
2024-03-06T12:08:55.456Z,12.02
2024-03-06T12:11:26.274Z,11.82
2024-03-06T12:13:52.916Z,12.82
2024-03-06T12:16:19.369Z,11.45
2024-03-06T12:18:47.582Z,11.83
2024-03-06T12:21:16.652Z,10.88
2024-03-06T12:23:43.174Z,11.25
2024-03-06T12:26:12.085Z,11.40
2024-03-06T12:28:40.171Z,10.95
2024-03-06T12:31:08.936Z,9.50
2024-03-06T12:33:35.842Z,9.57
2024-03-06T12:36:11.572Z,9.85
2024-03-06T12:38:38.762Z,8.57
2024-03-06T12:41:07.203Z,8.88
2024-03-06T12:43:35.820Z,8.10
2024-03-06T12:46:05.704Z,9.25
2024-03-06T12:48:32.646Z,8.63
2024-03-06T12:51:06.296Z,8.60
2024-03-06T12:53:36.180Z,7.10
2024-03-06T12:56:03.285Z,6.50
2024-03-06T12:58:32.257Z,5.72
2024-03-06T13:00:59.792Z,6.32
2024-03-06T13:03:26.373Z,6.97
2024-03-06T13:05:53.002Z,6.30
2024-03-06T13:08:19.550Z,5.53
2024-03-06T13:10:46.165Z,4.95
2024-03-06T13:13:12.878Z,5.47
2024-03-06T13:15:39.803Z,4.95
2024-03-06T13:18:07.188Z,5.00
2024-03-06T13:20:34.696Z,4.53
2024-03-06T13:23:02.280Z,5.40
2024-03-06T13:25:28.808Z,5.38
2024-03-06T13:27:55.472Z,5.50
2024-03-06T13:30:22.242Z,4.93
2024-03-06T13:32:48.923Z,4.30
2024-03-06T13:35:15.714Z,5.25
2024-03-06T13:37:42.357Z,5.53
2024-03-06T13:40:11.667Z,5.15
2024-03-06T13:42:38.313Z,5.10
2024-03-06T13:45:05.600Z,4.50
2024-03-06T13:47:32.299Z,5.00
2024-03-06T13:49:58.815Z,4.05
2024-03-06T13:52:25.335Z,4.25
2024-03-06T13:54:52.524Z,4.72
2024-03-06T13:57:19.151Z,5.00
2024-03-06T13:59:45.815Z,5.47
2024-03-06T14:02:12.315Z,5.68
2024-03-06T14:04:38.899Z,5.30
2024-03-06T14:07:05.666Z,5.45
2024-03-06T14:09:32.217Z,4.97
2024-03-06T14:11:59.124Z,5.60
2024-03-06T14:14:25.854Z,5.63
2024-03-06T14:16:52.468Z,5.78
2024-03-06T14:19:18.923Z,5.50
2024-03-06T14:21:45.489Z,5.60
2024-03-06T14:24:12.294Z,5.95
2024-03-06T14:26:39.307Z,5.88
2024-03-06T14:29:08.321Z,5.90
2024-03-06T14:31:35.752Z,6.38
2024-03-06T14:34:06.170Z,5.70
2024-03-06T14:36:33.829Z,6.15
2024-03-06T14:39:00.377Z,6.47
2024-03-06T14:41:27.081Z,6.07
2024-03-06T14:43:54.508Z,5.78
2024-03-06T14:46:21.284Z,5.40
2024-03-06T14:48:47.947Z,5.72
2024-03-06T14:51:14.639Z,5.80
2024-03-06T14:53:41.285Z,5.65
2024-03-06T14:56:08.379Z,6.00
2024-03-06T14:58:34.988Z,5.63
2024-03-06T15:01:01.560Z,6.43
2024-03-06T15:03:28.034Z,5.97
2024-03-06T15:05:54.828Z,5.75
2024-03-06T15:08:21.514Z,5.70
2024-03-06T15:10:48.025Z,6.37
2024-03-06T15:13:19.749Z,5.90
2024-03-06T15:15:46.231Z,5.00
2024-03-06T15:18:12.781Z,5.45
2024-03-06T15:20:39.816Z,4.97
2024-03-06T15:23:06.335Z,5.37
2024-03-06T15:25:32.836Z,5.07
2024-03-06T15:27:59.723Z,5.57
2024-03-06T15:30:26.774Z,6.28
2024-03-06T15:32:53.464Z,5.18
2024-03-06T15:35:20.045Z,4.87
2024-03-06T15:37:46.633Z,5.13
2024-03-06T15:40:13.176Z,5.15
2024-03-06T15:42:39.740Z,5.00
2024-03-06T15:45:06.462Z,5.35
2024-03-06T15:47:35.247Z,5.57
2024-03-06T15:50:02.021Z,5.50
2024-03-06T15:52:28.599Z,5.95
2024-03-06T15:54:57.499Z,5.57
2024-03-06T15:57:24.410Z,6.43
2024-03-06T15:59:50.962Z,5.27
2024-03-06T16:02:17.534Z,6.05
2024-03-06T16:04:44.173Z,5.82
2024-03-06T16:07:12.944Z,6.00
2024-03-06T16:09:39.762Z,5.47
2024-03-06T16:12:06.631Z,5.70
2024-03-06T16:14:33.369Z,5.80
2024-03-06T16:17:00.013Z,5.57
2024-03-06T16:19:34.333Z,5.90
2024-03-06T16:22:04.886Z,5.93
2024-03-06T16:24:31.922Z,5.60
2024-03-06T16:26:58.612Z,5.75
2024-03-06T16:29:25.165Z,5.40
2024-03-06T16:31:51.783Z,5.70
2024-03-06T16:34:22.618Z,6.07
2024-03-06T16:36:49.439Z,5.77
2024-03-06T16:39:16.881Z,6.45
2024-03-06T16:41:44.099Z,6.68
2024-03-06T16:44:14.126Z,6.00
2024-03-06T16:46:40.682Z,5.68
2024-03-06T16:49:08.396Z,6.63
2024-03-06T16:51:35.186Z,6.57
2024-03-06T16:54:03.662Z,6.93
2024-03-06T16:56:31.061Z,6.90
2024-03-06T16:58:58.089Z,6.68
2024-03-06T17:01:24.753Z,6.20
2024-03-06T17:03:51.512Z,7.63
2024-03-06T17:06:18.290Z,8.07
2024-03-06T17:08:44.906Z,8.20
2024-03-06T17:11:12.929Z,8.48
2024-03-06T17:13:40.362Z,8.70
2024-03-06T17:16:10.794Z,8.95
2024-03-06T17:18:38.394Z,9.13
2024-03-06T17:21:06.146Z,9.68
2024-03-06T17:23:33.317Z,9.68
2024-03-06T17:25:59.841Z,9.70
2024-03-06T17:28:26.517Z,9.18
2024-03-06T17:30:54.589Z,9.57
2024-03-06T17:33:21.838Z,9.80
2024-03-06T17:35:49.187Z,8.80
2024-03-06T17:38:19.935Z,9.30
2024-03-06T17:40:46.637Z,9.88
2024-03-06T17:43:15.028Z,9.73
2024-03-06T17:45:42.069Z,8.82
2024-03-06T17:48:09.626Z,9.38
2024-03-06T17:50:37.882Z,8.93
2024-03-06T17:53:06.050Z,9.75
2024-03-06T17:55:32.936Z,8.73
2024-03-06T17:58:03.453Z,8.95
2024-03-06T18:00:32.100Z,9.70
2024-03-06T18:03:00.129Z,9.43
2024-03-06T18:05:26.841Z,10.13
2024-03-06T18:07:53.441Z,9.88
2024-03-06T18:10:20.589Z,9.23
2024-03-06T18:12:47.129Z,9.90
2024-03-06T18:15:13.769Z,10.40
2024-03-06T18:17:40.471Z,9.93
2024-03-06T18:20:08.647Z,11.30
2024-03-06T18:22:35.965Z,11.07
2024-03-06T18:25:05.239Z,12.00
2024-03-06T18:27:32.893Z,12.17
2024-03-06T18:29:59.943Z,12.85
2024-03-06T18:32:26.647Z,13.07
2024-03-06T18:34:56.564Z,11.38
2024-03-06T18:37:23.621Z,11.68
2024-03-06T18:39:50.963Z,11.50
2024-03-06T18:42:21.482Z,12.70
2024-03-06T18:44:49.187Z,13.80
2024-03-06T18:47:16.006Z,12.30
2024-03-06T18:49:42.656Z,12.73
2024-03-06T18:52:09.264Z,12.00
2024-03-06T18:54:40.569Z,12.95
2024-03-06T18:57:07.883Z,11.93
2024-03-06T18:59:34.794Z,11.88
2024-03-06T19:02:01.443Z,13.43
2024-03-06T19:04:27.947Z,13.17
2024-03-06T19:06:54.577Z,13.85
2024-03-06T19:09:21.149Z,12.95
2024-03-06T19:11:48.834Z,11.85
2024-03-06T19:14:15.546Z,13.65
2024-03-06T19:16:42.405Z,15.03
2024-03-06T19:19:09.056Z,15.63
2024-03-06T19:21:35.626Z,14.35
2024-03-06T19:24:02.112Z,14.98
2024-03-06T19:26:28.645Z,13.68
2024-03-06T19:28:55.159Z,13.17
2024-03-06T19:31:21.673Z,13.27
2024-03-06T19:33:48.219Z,13.38
2024-03-06T19:36:14.806Z,14.63
2024-03-06T19:38:41.335Z,15.88
2024-03-06T19:41:07.973Z,13.93
2024-03-06T19:43:40.199Z,15.23
2024-03-06T19:46:07.447Z,16.17
2024-03-06T19:48:34.088Z,14.20
2024-03-06T19:51:01.059Z,15.68
2024-03-06T19:53:27.748Z,15.07
2024-03-06T19:55:54.688Z,19.75
2024-03-06T19:58:21.232Z,18.60
2024-03-06T20:00:47.754Z,16.73
2024-03-06T20:03:14.738Z,20.70
2024-03-06T20:05:41.361Z,17.23
2024-03-06T20:08:08.901Z,17.08
2024-03-06T20:10:35.535Z,15.27
2024-03-06T20:13:03.435Z,14.20
2024-03-06T20:15:35.809Z,14.63
2024-03-06T20:18:04.825Z,14.57
2024-03-06T20:20:32.562Z,13.32
2024-03-06T20:23:08.409Z,13.73
2024-03-06T20:25:35.608Z,14.35
2024-03-06T20:28:02.265Z,13.80
2024-03-06T20:30:28.793Z,12.87
2024-03-06T20:32:55.724Z,14.02
2024-03-06T20:35:24.784Z,13.65
2024-03-06T20:37:51.634Z,13.25
2024-03-06T20:40:18.385Z,13.43
2024-03-06T20:42:45.745Z,14.50
2024-03-06T20:45:13.939Z,15.65
2024-03-06T20:47:43.794Z,16.05
2024-03-06T20:50:11.456Z,19.95
2024-03-06T20:52:38.496Z,20.88
2024-03-06T20:55:05.386Z,19.43
2024-03-06T20:57:31.878Z,16.25
2024-03-06T20:59:58.592Z,16.65
2024-03-06T21:02:25.464Z,14.90
2024-03-06T21:04:52.948Z,14.75
2024-03-06T21:07:19.815Z,13.67
2024-03-06T21:09:46.409Z,14.07
2024-03-06T21:12:13.263Z,14.07
2024-03-06T21:14:40.266Z,12.60
2024-03-06T21:17:09.564Z,12.82
2024-03-06T21:19:37.299Z,13.13
2024-03-06T21:22:05.746Z,13.07
2024-03-06T21:24:33.260Z,13.18
2024-03-06T21:26:59.761Z,12.70
2024-03-06T21:29:26.342Z,12.98
2024-03-06T21:31:52.859Z,14.50
2024-03-06T21:34:19.399Z,13.98
2024-03-06T21:36:49.290Z,13.23
2024-03-06T21:39:16.132Z,13.82
2024-03-06T21:41:42.729Z,13.32
2024-03-06T21:44:09.870Z,13.73
2024-03-06T21:46:36.422Z,13.38
2024-03-06T21:49:02.922Z,14.25
2024-03-06T21:51:30.708Z,14.32
2024-03-06T21:53:57.179Z,13.55
2024-03-06T21:56:23.980Z,14.30
2024-03-06T21:58:50.889Z,14.23
2024-03-06T22:01:17.509Z,14.88
2024-03-06T22:03:43.975Z,13.43
2024-03-06T22:06:10.445Z,14.98
2024-03-06T22:08:38.900Z,14.50
2024-03-06T22:11:13.054Z,13.48
2024-03-06T22:13:39.715Z,14.45
2024-03-06T22:16:06.465Z,14.20
2024-03-06T22:18:33.046Z,14.38
2024-03-06T22:20:59.539Z,13.40
2024-03-06T22:23:29.820Z,13.95
2024-03-06T22:25:56.332Z,14.32
2024-03-06T22:28:22.835Z,13.80
2024-03-06T22:30:49.292Z,14.88
2024-03-06T22:33:15.870Z,13.70
2024-03-06T22:35:42.613Z,14.27
2024-03-06T22:38:09.964Z,14.18
2024-03-06T22:40:37.209Z,14.52
2024-03-06T22:43:06.144Z,14.48
2024-03-06T22:45:32.692Z,13.53
2024-03-06T22:47:59.276Z,13.32
2024-03-06T22:50:25.950Z,13.00
2024-03-06T22:52:53.786Z,12.20
2024-03-06T22:55:20.235Z,14.27
2024-03-06T22:57:46.693Z,13.53
2024-03-06T23:00:30.241Z,12.95
2024-03-06T23:02:58.196Z,13.63
2024-03-06T23:05:27.229Z,13.45
2024-03-06T23:07:55.047Z,14.60
2024-03-06T23:10:21.558Z,13.70
2024-03-06T23:12:48.738Z,13.18
2024-03-06T23:15:16.480Z,14.57
2024-03-06T23:17:47.353Z,13.80
2024-03-06T23:20:21.530Z,14.32
2024-03-06T23:22:48.250Z,13.73
2024-03-06T23:25:16.130Z,13.38
2024-03-06T23:27:43.966Z,13.65
2024-03-06T23:30:12.437Z,13.20
2024-03-06T23:32:40.049Z,13.10
2024-03-06T23:35:09.129Z,13.80
2024-03-06T23:37:36.123Z,13.18
2024-03-06T23:40:15.894Z,13.35
2024-03-06T23:42:44.621Z,13.43
2024-03-06T23:45:13.100Z,13.73
2024-03-06T23:47:40.361Z,12.93
2024-03-06T23:50:08.732Z,12.48
2024-03-06T23:52:36.196Z,12.60
2024-03-06T23:55:02.741Z,14.27
2024-03-06T23:57:29.454Z,13.80
2024-03-06T23:59:56.045Z,13.47
